createdAt,value
2023-02-22T00:00:42.204Z,5.00
2023-02-22T00:03:24.657Z,4.50
2023-02-22T00:05:54.322Z,5.10
2023-02-22T00:08:22.234Z,4.30
2023-02-22T00:10:51.572Z,4.20
2023-02-22T00:13:19.032Z,5.70
2023-02-22T00:15:45.410Z,6.20
2023-02-22T00:18:12.823Z,5.20
2023-02-22T00:23:09.311Z,4.90
2023-02-22T00:25:35.960Z,5.20
2023-02-22T00:28:04.636Z,5.20
2023-02-22T00:30:33.195Z,5.80
2023-02-22T00:32:59.730Z,5.50
2023-02-22T00:35:27.675Z,4.60
2023-02-22T00:37:58.769Z,5.70
2023-02-22T00:40:27.145Z,5.40
2023-02-22T00:42:53.887Z,4.60
2023-02-22T00:45:21.642Z,4.70
2023-02-22T00:47:48.972Z,5.20
2023-02-22T00:50:16.573Z,4.60
2023-02-22T00:52:43.555Z,5.10
2023-02-22T00:55:15.261Z,6.30
2023-02-22T00:57:41.802Z,6.30
2023-02-22T01:00:12.575Z,6.40
2023-02-22T01:02:39.598Z,5.20
2023-02-22T01:07:33.034Z,4.70
2023-02-22T01:10:00.582Z,5.50
2023-02-22T01:14:56.468Z,4.60
2023-02-22T01:17:24.587Z,4.70
2023-02-22T01:19:53.892Z,5.40
2023-02-22T01:22:21.119Z,4.80
2023-02-22T01:24:48.367Z,4.70
2023-02-22T01:27:15.170Z,4.60
2023-02-22T01:29:41.590Z,4.70
2023-02-22T01:32:08.065Z,4.20
2023-02-22T01:34:34.459Z,4.50
2023-02-22T01:37:05.750Z,4.60
2023-02-22T01:39:32.316Z,4.40
2023-02-22T01:41:58.701Z,5.10
2023-02-22T01:44:27.372Z,4.90
2023-02-22T01:46:54.743Z,4.80
2023-02-22T01:51:49.903Z,4.40
2023-02-22T01:54:19.263Z,4.60
2023-02-22T01:56:50.214Z,4.50
2023-02-22T01:59:17.855Z,5.30
2023-02-22T02:01:44.453Z,4.90
2023-02-22T02:04:19.856Z,5.20
2023-02-22T02:06:46.521Z,4.40
2023-02-22T02:09:16.968Z,5.40
2023-02-22T02:11:43.532Z,4.90
2023-02-22T02:14:10.638Z,5.60
2023-02-22T02:16:39.328Z,5.80
2023-02-22T02:19:10.254Z,5.20
2023-02-22T02:21:39.783Z,5.50
2023-02-22T02:24:15.909Z,5.50
2023-02-22T02:26:58.154Z,6.20
2023-02-22T02:29:30.929Z,5.90
2023-02-22T02:32:03.466Z,5.80
2023-02-22T02:34:43.203Z,5.40
2023-02-22T02:37:36.032Z,4.90
2023-02-22T02:40:11.554Z,5.50
2023-02-22T02:42:42.997Z,5.50
2023-02-22T02:45:18.069Z,5.40
2023-02-22T02:47:46.378Z,5.40
2023-02-22T02:50:17.245Z,5.40
2023-02-22T02:52:44.711Z,5.60
2023-02-22T02:55:11.809Z,5.90
2023-02-22T02:57:40.851Z,5.90
2023-02-22T03:00:21.848Z,5.80
2023-02-22T03:03:01.877Z,5.20
2023-02-22T03:05:40.702Z,5.20
2023-02-22T03:08:17.629Z,5.70
2023-02-22T03:11:14.500Z,5.60
2023-02-22T03:13:54.977Z,5.50
2023-02-22T03:16:21.620Z,5.30
2023-02-22T03:18:51.213Z,5.70
2023-02-22T03:21:17.871Z,5.50
2023-02-22T03:23:50.606Z,5.90
2023-02-22T03:26:23.392Z,5.90
2023-02-22T03:28:51.403Z,5.10
2023-02-22T03:31:44.328Z,5.10
2023-02-22T03:34:12.649Z,5.10
2023-02-22T03:36:42.782Z,5.80
2023-02-22T03:39:11.736Z,5.70
2023-02-22T03:41:38.509Z,5.80
2023-02-22T03:44:08.753Z,5.10
2023-02-22T03:46:36.861Z,5.30
2023-02-22T03:49:11.328Z,5.30
2023-02-22T03:51:39.047Z,5.40
2023-02-22T03:54:06.284Z,5.90
2023-02-22T03:59:04.476Z,5.60
2023-02-22T04:01:30.797Z,5.20
2023-02-22T04:03:57.186Z,5.70
2023-02-22T04:06:23.784Z,6.10
2023-02-22T04:08:50.307Z,6.10
2023-02-22T04:11:16.912Z,5.70
2023-02-22T04:13:43.673Z,6.20
2023-02-22T04:16:10.158Z,6.30
2023-02-22T04:18:36.750Z,6.20
2023-02-22T04:21:03.919Z,5.70
2023-02-22T04:23:30.487Z,5.70
2023-02-22T04:25:56.965Z,6.00
2023-02-22T04:28:23.605Z,5.60
2023-02-22T04:30:50.064Z,5.80
2023-02-22T04:33:16.719Z,5.80
2023-02-22T04:35:43.240Z,5.80
2023-02-22T04:38:09.537Z,5.30
2023-02-22T04:40:35.959Z,5.40
2023-02-22T04:43:02.710Z,5.30
2023-02-22T04:45:30.396Z,5.30
2023-02-22T04:47:56.762Z,5.00
2023-02-22T04:50:23.171Z,6.00
2023-02-22T04:52:49.563Z,6.30
2023-02-22T04:55:16.080Z,5.80
2023-02-22T04:57:42.489Z,6.30
2023-02-22T05:00:09.887Z,5.60
2023-02-22T05:05:02.592Z,5.60
2023-02-22T05:07:28.948Z,5.70
2023-02-22T05:09:55.335Z,5.80
2023-02-22T05:12:21.797Z,5.50
2023-02-22T05:14:48.149Z,5.30
2023-02-22T05:17:14.656Z,5.60
2023-02-22T05:19:41.478Z,5.20
2023-02-22T05:22:07.812Z,5.60
2023-02-22T05:24:34.432Z,5.40
2023-02-22T05:27:01.031Z,5.50
2023-02-22T05:29:27.607Z,5.50
2023-02-22T05:31:54.137Z,4.90
2023-02-22T05:34:20.684Z,6.00
2023-02-22T05:36:47.059Z,5.20
2023-02-22T05:39:13.466Z,6.00
2023-02-22T05:41:39.884Z,5.70
2023-02-22T05:44:06.415Z,5.70
2023-02-22T05:46:33.078Z,5.50
2023-02-22T05:48:59.744Z,5.20
2023-02-22T05:51:26.072Z,5.00
2023-02-22T05:53:52.501Z,5.50
2023-02-22T05:56:23.168Z,5.50
2023-02-22T05:58:49.748Z,5.20
2023-02-22T06:01:16.349Z,5.80
2023-02-22T06:03:46.044Z,5.90
2023-02-22T06:06:12.603Z,6.60
2023-02-22T06:08:39.656Z,5.60
2023-02-22T06:11:06.124Z,5.60
2023-02-22T06:13:32.393Z,5.90
2023-02-22T06:15:58.763Z,6.00
2023-02-22T06:18:26.179Z,6.20
2023-02-22T06:23:18.625Z,6.00
2023-02-22T06:25:45.224Z,5.80
2023-02-22T06:28:11.683Z,6.30
2023-02-22T06:30:40.430Z,6.30
2023-02-22T06:33:07.017Z,5.80
2023-02-22T06:35:33.529Z,6.50
2023-02-22T06:37:59.905Z,7.70
2023-02-22T06:40:29.229Z,6.80
2023-02-22T06:42:56.520Z,6.90
2023-02-22T06:45:23.199Z,6.30
2023-02-22T06:47:49.830Z,5.40
2023-02-22T06:50:18.302Z,5.70
2023-02-22T06:52:44.712Z,5.60
2023-02-22T06:55:11.100Z,6.40
2023-02-22T06:57:37.468Z,5.10
2023-02-22T07:00:03.942Z,4.90
2023-02-22T07:02:30.311Z,5.50
2023-02-22T07:04:56.948Z,5.70
2023-02-22T07:07:24.626Z,6.20
2023-02-22T07:09:51.145Z,6.40
2023-02-22T07:12:17.439Z,6.60
2023-02-22T07:14:43.856Z,8.70
2023-02-22T07:17:11.673Z,13.60
2023-02-22T07:19:38.543Z,15.70
2023-02-22T07:22:05.583Z,8.80
2023-02-22T07:24:34.501Z,7.20
2023-02-22T07:27:01.963Z,7.40
2023-02-22T07:29:29.713Z,9.00
2023-02-22T07:31:57.214Z,9.50
2023-02-22T07:34:23.698Z,8.10
2023-02-22T07:36:50.039Z,8.10
2023-02-22T07:39:16.460Z,8.20
2023-02-22T07:41:42.719Z,8.30
2023-02-22T07:44:09.046Z,9.60
2023-02-22T07:46:35.442Z,7.20
2023-02-22T07:49:01.806Z,7.10
2023-02-22T07:51:28.096Z,7.20
2023-02-22T07:53:54.566Z,6.90
2023-02-22T07:56:20.928Z,6.90
2023-02-22T07:58:47.264Z,7.60
2023-02-22T08:01:14.029Z,7.90
2023-02-22T08:03:41.999Z,8.30
2023-02-22T08:06:08.415Z,8.50
2023-02-22T08:08:34.832Z,8.40
2023-02-22T08:11:01.810Z,8.30
2023-02-22T08:13:28.112Z,7.40
2023-02-22T08:15:55.457Z,8.00
2023-02-22T08:20:49.015Z,5.80
2023-02-22T08:25:42.144Z,7.20
2023-02-22T08:28:14.429Z,7.20
2023-02-22T08:30:44.590Z,8.70
2023-02-22T08:33:13.656Z,8.70
2023-02-22T08:35:42.908Z,10.50
2023-02-22T08:38:15.434Z,10.80
2023-02-22T08:40:41.901Z,11.20
2023-02-22T08:43:08.752Z,11.60
2023-02-22T08:45:35.485Z,10.80
2023-02-22T08:48:01.874Z,10.80
2023-02-22T08:50:29.491Z,10.20
2023-02-22T08:52:58.693Z,10.40
2023-02-22T08:55:26.274Z,11.20
2023-02-22T08:57:52.610Z,10.10
2023-02-22T09:00:20.062Z,11.00
2023-02-22T09:02:46.449Z,11.90
2023-02-22T09:05:12.906Z,12.90
2023-02-22T09:07:43.693Z,13.20
2023-02-22T09:10:14.774Z,13.10
2023-02-22T09:12:43.042Z,12.30
2023-02-22T09:15:10.281Z,12.50
2023-02-22T09:17:36.822Z,10.60
2023-02-22T09:20:05.160Z,9.50
2023-02-22T09:22:31.904Z,10.40
2023-02-22T09:25:00.194Z,10.00
2023-02-22T09:27:29.808Z,9.60
2023-02-22T09:29:58.119Z,10.30
2023-02-22T09:32:27.176Z,9.70
2023-02-22T09:34:54.173Z,10.00
2023-02-22T09:37:20.581Z,9.60
2023-02-22T09:39:47.180Z,7.70
2023-02-22T09:42:28.858Z,7.90
2023-02-22T09:45:00.716Z,9.20
2023-02-22T09:47:34.948Z,8.60
2023-02-22T09:50:15.780Z,9.20
2023-02-22T09:53:04.040Z,8.50
2023-02-22T09:55:35.921Z,8.50
2023-02-22T09:58:05.376Z,8.70
2023-02-22T10:00:37.346Z,8.30
2023-02-22T10:03:21.304Z,8.00
2023-02-22T10:06:00.392Z,8.00
2023-02-22T10:08:31.063Z,8.40
2023-02-22T10:11:05.346Z,8.80
2023-02-22T10:13:38.600Z,8.60
2023-02-22T10:16:17.387Z,8.60
2023-02-22T10:19:02.993Z,7.60
2023-02-22T10:21:38.096Z,7.70
2023-02-22T10:24:07.272Z,7.40
2023-02-22T10:26:40.218Z,7.00
2023-02-22T10:29:13.851Z,5.90
2023-02-22T10:31:42.328Z,7.30
2023-02-22T10:34:29.302Z,7.30
2023-02-22T10:39:22.451Z,6.30
2023-02-22T10:41:50.551Z,5.40
2023-02-22T10:44:17.031Z,6.60
2023-02-22T10:46:43.874Z,6.30
2023-02-22T10:49:11.815Z,6.20
2023-02-22T10:51:38.898Z,5.70
2023-02-22T10:54:26.649Z,5.30
2023-02-22T10:56:57.345Z,5.90
2023-02-22T10:59:26.965Z,5.30
2023-02-22T11:01:53.808Z,5.50
2023-02-22T11:04:21.118Z,6.00
2023-02-22T11:06:49.255Z,6.10
2023-02-22T11:09:17.314Z,5.20
2023-02-22T11:11:45.247Z,5.00
2023-02-22T11:14:12.906Z,4.70
2023-02-22T11:16:58.512Z,4.90
2023-02-22T11:19:29.649Z,3.20
2023-02-22T11:22:19.479Z,3.80
2023-02-22T11:24:50.083Z,3.50
2023-02-22T11:27:31.803Z,3.30
2023-02-22T11:30:07.744Z,3.20
2023-02-22T11:32:35.826Z,3.20
2023-02-22T11:35:20.937Z,2.10
2023-02-22T11:37:47.647Z,2.50
2023-02-22T11:40:21.400Z,3.30
2023-02-22T11:43:11.521Z,2.60
2023-02-22T11:45:44.199Z,3.70
2023-02-22T11:48:20.364Z,3.80
2023-02-22T11:50:52.895Z,3.50
2023-02-22T11:53:22.477Z,3.60
2023-02-22T11:55:48.753Z,3.80
2023-02-22T11:58:27.830Z,3.60
2023-02-22T12:00:54.367Z,3.70
2023-02-22T12:03:36.220Z,3.80
2023-02-22T12:06:11.725Z,3.30
2023-02-22T12:08:40.501Z,3.80
2023-02-22T12:11:13.254Z,4.00
2023-02-22T12:13:51.959Z,3.60
2023-02-22T12:16:28.182Z,4.00
2023-02-22T12:19:04.799Z,4.40
2023-02-22T12:21:34.050Z,3.70
2023-02-22T12:24:06.641Z,4.70
2023-02-22T12:26:38.792Z,4.70
2023-02-22T12:29:14.008Z,4.40
2023-02-22T12:31:52.681Z,4.70
2023-02-22T12:34:25.971Z,4.20
2023-02-22T12:37:04.524Z,4.30
2023-02-22T12:39:52.633Z,4.20
2023-02-22T12:42:29.102Z,4.70
2023-02-22T12:45:03.752Z,4.70
2023-02-22T12:47:42.007Z,4.60
2023-02-22T12:50:22.783Z,4.40
2023-02-22T12:52:49.274Z,5.00
2023-02-22T12:55:33.065Z,5.10
2023-02-22T12:58:09.084Z,4.60
2023-02-22T13:00:49.663Z,4.50
2023-02-22T13:03:17.361Z,4.30
2023-02-22T13:05:45.236Z,4.30
2023-02-22T13:08:22.548Z,4.40
2023-02-22T13:11:07.866Z,4.60
2023-02-22T13:13:37.711Z,4.20
2023-02-22T13:16:07.492Z,4.20
2023-02-22T13:18:53.436Z,4.20
2023-02-22T13:21:20.014Z,4.20
2023-02-22T13:23:52.117Z,4.30
2023-02-22T13:26:31.848Z,4.50
2023-02-22T13:29:02.333Z,4.00
2023-02-22T13:31:34.392Z,4.30
2023-02-22T13:34:12.587Z,4.40
2023-02-22T13:36:53.721Z,4.30
2023-02-22T13:39:30.676Z,5.00
2023-02-22T13:42:08.019Z,5.20
2023-02-22T13:45:03.465Z,4.30
2023-02-22T13:47:49.272Z,4.70
2023-02-22T13:50:42.412Z,5.00
2023-02-22T13:53:15.333Z,5.30
2023-02-22T13:55:46.141Z,5.70
2023-02-22T13:58:12.804Z,5.40
2023-02-22T14:00:42.295Z,5.10
2023-02-22T14:03:12.379Z,5.10
2023-02-22T14:05:40.355Z,5.50
2023-02-22T14:08:27.327Z,5.30
2023-02-22T14:10:57.209Z,4.70
2023-02-22T14:13:28.632Z,5.00
2023-02-22T14:16:01.798Z,4.40
2023-02-22T14:18:37.106Z,4.40
2023-02-22T14:21:07.969Z,4.50
2023-02-22T14:23:39.734Z,4.00
2023-02-22T14:26:19.489Z,4.60
2023-02-22T14:29:02.387Z,4.70
2023-02-22T14:31:36.560Z,4.80
2023-02-22T14:34:14.077Z,4.90
2023-02-22T14:36:43.685Z,4.60
2023-02-22T14:39:14.223Z,4.90
2023-02-22T14:41:45.491Z,4.40
2023-02-22T14:44:13.291Z,4.30
2023-02-22T14:46:42.884Z,4.80
2023-02-22T14:49:18.426Z,5.60
2023-02-22T14:51:54.834Z,7.70
2023-02-22T14:54:27.077Z,6.80
2023-02-22T14:57:16.312Z,6.60
2023-02-22T15:00:08.180Z,6.30
2023-02-22T15:02:41.727Z,5.60
2023-02-22T15:05:13.141Z,5.80
2023-02-22T15:07:40.158Z,5.50
2023-02-22T15:10:20.541Z,5.70
2023-02-22T15:12:51.640Z,5.60
2023-02-22T15:15:24.159Z,5.70
2023-02-22T15:17:57.268Z,5.70
2023-02-22T15:20:25.102Z,5.90
2023-02-22T15:22:57.228Z,7.00
2023-02-22T15:25:25.301Z,7.50
2023-02-22T15:27:51.953Z,9.20
2023-02-22T15:30:26.327Z,8.20
2023-02-22T15:33:03.576Z,9.20
2023-02-22T15:35:32.834Z,9.40
2023-02-22T15:38:05.525Z,8.60
2023-02-22T15:40:32.758Z,8.80
2023-02-22T15:47:55.187Z,9.10
2023-02-22T15:50:29.133Z,9.90
2023-02-22T15:52:57.461Z,9.70
2023-02-22T15:55:34.836Z,10.00
2023-02-22T15:58:10.245Z,10.30
2023-02-22T16:00:38.033Z,10.90
2023-02-22T16:03:06.178Z,11.10
2023-02-22T16:05:44.301Z,11.30
2023-02-22T16:08:15.515Z,10.60
2023-02-22T16:10:46.585Z,10.90
2023-02-22T16:13:32.124Z,11.10
2023-02-22T16:16:01.303Z,12.00
2023-02-22T16:18:30.950Z,11.60
2023-02-22T16:21:02.795Z,12.50
2023-02-22T16:23:29.665Z,13.00
2023-02-22T16:26:17.804Z,13.80
2023-02-22T16:28:55.905Z,13.60
2023-02-22T16:31:25.313Z,15.10
2023-02-22T16:33:53.715Z,13.80
2023-02-22T16:36:22.767Z,13.30
2023-02-22T16:38:51.697Z,13.20
2023-02-22T16:41:19.434Z,13.70
2023-02-22T16:46:16.069Z,12.90
2023-02-22T16:51:26.465Z,12.40
2023-02-22T16:53:54.472Z,13.90
2023-02-22T16:56:30.705Z,15.30
2023-02-22T16:59:00.531Z,15.80
2023-02-22T17:01:26.971Z,16.70
2023-02-22T17:03:53.922Z,15.40
2023-02-22T17:06:23.261Z,14.40
2023-02-22T17:08:52.083Z,13.20
2023-02-22T17:11:18.950Z,13.20
2023-02-22T17:13:51.136Z,14.50
2023-02-22T17:16:18.155Z,14.00
2023-02-22T17:18:45.363Z,13.10
2023-02-22T17:21:11.888Z,13.30
2023-02-22T17:23:38.315Z,14.60
2023-02-22T17:26:04.939Z,15.80
2023-02-22T17:28:31.580Z,14.80
2023-02-22T17:31:02.450Z,16.20
2023-02-22T17:33:30.728Z,16.00
2023-02-22T17:35:58.324Z,15.70
2023-02-22T17:38:28.451Z,16.30
2023-02-22T17:40:56.078Z,15.90
2023-02-22T17:43:24.412Z,16.30
2023-02-22T17:45:50.877Z,16.40
2023-02-22T17:48:17.894Z,16.40
2023-02-22T17:50:45.896Z,17.20
2023-02-22T17:53:14.733Z,15.30
2023-02-22T17:55:42.157Z,16.60
2023-02-22T17:58:13.805Z,16.40
2023-02-22T18:00:42.244Z,16.00
2023-02-22T18:03:10.509Z,15.50
2023-02-22T18:05:38.830Z,13.20
2023-02-22T18:08:05.311Z,13.40
2023-02-22T18:10:31.888Z,13.30
2023-02-22T18:13:01.350Z,13.40
2023-02-22T18:15:28.464Z,12.40
2023-02-22T18:17:55.537Z,13.70
2023-02-22T18:20:37.460Z,13.60
2023-02-22T18:23:07.829Z,13.40
2023-02-22T18:25:35.423Z,12.60
2023-02-22T18:28:06.422Z,14.70
2023-02-22T18:30:35.264Z,19.30
2023-02-22T18:33:03.084Z,13.60
2023-02-22T18:35:29.833Z,13.40
2023-02-22T18:37:56.223Z,14.00
2023-02-22T18:40:23.177Z,13.20
2023-02-22T18:42:49.510Z,13.70
2023-02-22T18:45:16.560Z,14.30
2023-02-22T18:47:43.266Z,13.50
2023-02-22T18:50:10.352Z,13.80
2023-02-22T18:52:46.066Z,13.50
2023-02-22T18:55:13.851Z,12.90
2023-02-22T18:57:40.679Z,14.60
2023-02-22T19:00:08.593Z,13.30
2023-02-22T19:02:35.283Z,14.50
2023-02-22T19:05:03.241Z,15.30
2023-02-22T19:07:30.076Z,14.40
2023-02-22T19:09:58.528Z,16.60
2023-02-22T19:12:28.069Z,16.50
2023-02-22T19:14:57.574Z,15.00
2023-02-22T19:17:24.452Z,15.00
2023-02-22T19:19:51.228Z,14.30
2023-02-22T19:22:17.675Z,12.80
2023-02-22T19:24:44.929Z,15.50
2023-02-22T19:27:11.830Z,14.60
2023-02-22T19:29:39.483Z,15.30
2023-02-22T19:32:07.274Z,14.50
2023-02-22T19:34:36.376Z,14.10
2023-02-22T19:37:04.535Z,13.80
2023-02-22T19:39:32.223Z,14.50
2023-02-22T19:41:59.197Z,14.70
2023-02-22T19:46:55.259Z,13.20
2023-02-22T19:49:27.373Z,13.20
2023-02-22T19:51:57.787Z,13.60
2023-02-22T19:54:25.595Z,14.80
2023-02-22T19:56:52.620Z,13.90
2023-02-22T19:59:22.493Z,13.10
2023-02-22T20:01:51.620Z,12.60
2023-02-22T20:04:21.070Z,14.00
2023-02-22T20:06:54.079Z,13.60
2023-02-22T20:09:23.430Z,13.70
2023-02-22T20:11:53.117Z,12.30
2023-02-22T20:14:22.890Z,12.60
2023-02-22T20:16:50.942Z,12.30
2023-02-22T20:19:17.694Z,12.60
2023-02-22T20:21:44.472Z,12.30
2023-02-22T20:24:14.333Z,12.90
2023-02-22T20:26:41.807Z,12.70
2023-02-22T20:29:09.661Z,12.40
2023-02-22T20:31:38.765Z,12.20
2023-02-22T20:34:05.696Z,12.00
2023-02-22T20:36:35.310Z,12.50
2023-02-22T20:39:07.308Z,12.50
2023-02-22T20:41:35.441Z,11.60
2023-02-22T20:44:03.013Z,10.80
2023-02-22T20:46:31.072Z,11.20
2023-02-22T20:48:59.353Z,10.80
2023-02-22T20:51:26.620Z,10.10
2023-02-22T20:53:53.654Z,11.10
2023-02-22T20:56:21.763Z,10.10
2023-02-22T20:58:48.697Z,10.10
2023-02-22T21:01:17.683Z,10.00
2023-02-22T21:03:45.311Z,10.40
2023-02-22T21:08:45.591Z,8.90
2023-02-22T21:11:14.236Z,9.10
2023-02-22T21:13:40.913Z,9.70
2023-02-22T21:16:09.839Z,8.90
2023-02-22T21:18:36.405Z,9.60
2023-02-22T21:21:09.592Z,9.20
2023-02-22T21:23:36.781Z,9.70
2023-02-22T21:26:04.099Z,8.90
2023-02-22T21:31:18.388Z,8.60
2023-02-22T21:33:48.045Z,8.30
2023-02-22T21:36:15.320Z,9.80
2023-02-22T21:41:10.550Z,8.70
2023-02-22T21:43:37.243Z,8.30
2023-02-22T21:46:04.483Z,9.30
2023-02-22T21:48:31.553Z,8.80
2023-02-22T21:50:58.618Z,9.80
2023-02-22T21:53:25.606Z,10.30
2023-02-22T21:55:53.145Z,8.90
2023-02-22T21:58:20.074Z,9.90
2023-02-22T22:00:46.919Z,9.10
2023-02-22T22:03:20.130Z,9.10
2023-02-22T22:05:48.400Z,9.20
2023-02-22T22:08:21.569Z,8.90
2023-02-22T22:10:55.185Z,8.90
2023-02-22T22:13:22.736Z,9.30
2023-02-22T22:15:50.225Z,10.10
2023-02-22T22:18:17.851Z,9.50
2023-02-22T22:20:44.897Z,9.40
2023-02-22T22:23:14.817Z,9.30
2023-02-22T22:25:41.342Z,9.40
2023-02-22T22:28:10.766Z,9.60
2023-02-22T22:30:37.670Z,10.30
2023-02-22T22:33:10.681Z,9.70
2023-02-22T22:35:41.282Z,10.30
2023-02-22T22:38:09.379Z,10.30
2023-02-22T22:40:38.288Z,10.40
2023-02-22T22:43:05.460Z,9.90
2023-02-22T22:45:32.290Z,10.90
2023-02-22T22:47:58.739Z,10.30
2023-02-22T22:50:25.836Z,10.50
2023-02-22T22:55:23.825Z,9.50
2023-02-22T22:57:51.573Z,10.60
2023-02-22T23:00:28.929Z,10.00
2023-02-22T23:02:56.750Z,9.90
2023-02-22T23:05:28.543Z,9.70
2023-02-22T23:07:56.254Z,10.30
2023-02-22T23:12:54.980Z,10.00
2023-02-22T23:15:24.047Z,10.50
2023-02-22T23:17:58.577Z,9.80
2023-02-22T23:20:25.905Z,10.70
2023-02-22T23:22:53.393Z,10.90
2023-02-22T23:25:20.848Z,10.70
2023-02-22T23:27:48.912Z,10.90
2023-02-22T23:30:18.023Z,10.40
2023-02-22T23:32:46.145Z,10.30
2023-02-22T23:35:14.971Z,10.40
2023-02-22T23:37:41.901Z,10.20
2023-02-22T23:40:16.362Z,10.60
2023-02-22T23:42:47.641Z,10.40
2023-02-22T23:45:24.446Z,10.80
2023-02-22T23:47:55.906Z,10.70
2023-02-22T23:50:23.545Z,10.60
2023-02-22T23:52:56.406Z,10.40
2023-02-22T23:55:27.734Z,10.10
2023-02-22T23:57:58.675Z,10.80
